TW-0008 weather

China Medical University Hospital Heliport
Taichung, Taichung (city), Taiwan

Public forecast

Using degrees Celsius for public forecast. Weather courtesy of forecast.io.

METAR (pilot weather report)

Closest report is Taichung Ching Chuang Kang Airport, 7.4 nm (13.8 km) NNW. Retrieved 2019/07/21 23:30 UTC (0 seconds ago):

RCMQ 212330Z 18006KT 9999 FEW012 SCT050 BKN080 28/23 Q1008 NOSIG RMK A2978

TAF (pilot weather forecast)

Closest forecast is Taichung Ching Chuang Kang Airport, 7.4 nm (13.8 km) NNW. Retrieved 2019/07/21 18:21 UTC (5 hours ago):

TAF RCMQ 211700Z 2118/2218 20006KT 9999 FEW012 BKN060 TX32/2206Z TN26/2121Z TEMPO 2120/2201 8000 -RA FEW012 SCT030 BKN050 BECMG 2202/2205 20015KT TEMPO 2206/2211 8000 -RA FEW010 BKN020 BKN050 BECMG 2214/2217 18006KT